<?xml version="1.0" encoding="UTF-8" standalone="no" ?>
<gpx xmlns="http://www.topografix.com/GPX/1/1" xmlns:xsi="http://www.w3.org/2001/XMLSchema-instance" xsi:schemaLocation="http://www.topografix.com/GPX/1/1 http://www.topografix.com/GPX/1/1/gpx.xsd" version="1.1" creator="VisuGPX - https://www.visugpx.com">
  <metadata>
    <name>Fortschwihr-Gueberschwihr</name>
  </metadata>
  <trk>
    <name><![CDATA[10819299-etape1]]></name>
    <trkseg>
      <trkpt lat="48.09083" lon="7.45383">
        <ele>183</ele>
        <time>2019-12-26T20:57:45Z</time>
      </trkpt>
      <trkpt lat="48.09062" lon="7.45371">
        <ele>183</ele>
        <time>2019-12-26T20:58:03Z</time>
      </trkpt>
      <trkpt lat="48.09042" lon="7.45367">
        <ele>183</ele>
        <time>2019-12-26T20:58:19Z</time>
      </trkpt>
      <trkpt lat="48.08974" lon="7.4533">
        <ele>184</ele>
        <time>2019-12-26T20:59:17Z</time>
      </trkpt>
      <trkpt lat="48.08998" lon="7.45239">
        <ele>183</ele>
        <time>2019-12-26T21:00:09Z</time>
      </trkpt>
      <trkpt lat="48.09013" lon="7.45174">
        <ele>184</ele>
        <time>2019-12-26T21:00:46Z</time>
      </trkpt>
      <trkpt lat="48.09019" lon="7.45137">
        <ele>183</ele>
        <time>2019-12-26T21:01:07Z</time>
      </trkpt>
      <trkpt lat="48.09023" lon="7.45098">
        <ele>183</ele>
        <time>2019-12-26T21:01:28Z</time>
      </trkpt>
      <trkpt lat="48.09031" lon="7.4505">
        <ele>183</ele>
        <time>2019-12-26T21:01:54Z</time>
      </trkpt>
      <trkpt lat="48.09037" lon="7.45033">
        <ele>183</ele>
        <time>2019-12-26T21:02:04Z</time>
      </trkpt>
      <trkpt lat="48.09031" lon="7.45026">
        <ele>183</ele>
        <time>2019-12-26T21:02:10Z</time>
      </trkpt>
      <trkpt lat="48.09018" lon="7.45025">
        <ele>183</ele>
        <time>2019-12-26T21:02:21Z</time>
      </trkpt>
      <trkpt lat="48.08986" lon="7.4503">
        <ele>183</ele>
        <time>2019-12-26T21:02:47Z</time>
      </trkpt>
      <trkpt lat="48.08936" lon="7.45033">
        <ele>184</ele>
        <time>2019-12-26T21:03:27Z</time>
      </trkpt>
      <trkpt lat="48.08937" lon="7.45019">
        <ele>183</ele>
        <time>2019-12-26T21:03:34Z</time>
      </trkpt>
      <trkpt lat="48.08942" lon="7.4499">
        <ele>183</ele>
        <time>2019-12-26T21:03:50Z</time>
      </trkpt>
      <trkpt lat="48.08948" lon="7.44975">
        <ele>183</ele>
        <time>2019-12-26T21:04:00Z</time>
      </trkpt>
      <trkpt lat="48.08962" lon="7.44946">
        <ele>183</ele>
        <time>2019-12-26T21:04:19Z</time>
      </trkpt>
      <trkpt lat="48.08953" lon="7.44927">
        <ele>183</ele>
        <time>2019-12-26T21:04:31Z</time>
      </trkpt>
      <trkpt lat="48.08934" lon="7.44854">
        <ele>183</ele>
        <time>2019-12-26T21:05:13Z</time>
      </trkpt>
      <trkpt lat="48.08947" lon="7.44843">
        <ele>183</ele>
        <time>2019-12-26T21:05:25Z</time>
      </trkpt>
      <trkpt lat="48.0893" lon="7.44766">
        <ele>182</ele>
        <time>2019-12-26T21:06:08Z</time>
      </trkpt>
      <trkpt lat="48.08964" lon="7.44573">
        <ele>181</ele>
        <time>2019-12-26T21:07:55Z</time>
      </trkpt>
      <trkpt lat="48.08965" lon="7.4456">
        <ele>181</ele>
        <time>2019-12-26T21:08:02Z</time>
      </trkpt>
      <trkpt lat="48.09035" lon="7.44346">
        <ele>181</ele>
        <time>2019-12-26T21:10:10Z</time>
      </trkpt>
      <trkpt lat="48.08842" lon="7.44234">
        <ele>182</ele>
        <time>2019-12-26T21:12:55Z</time>
      </trkpt>
      <trkpt lat="48.08967" lon="7.43758">
        <ele>181</ele>
        <time>2019-12-26T21:17:29Z</time>
      </trkpt>
      <trkpt lat="48.09048" lon="7.43458">
        <ele>182</ele>
        <time>2019-12-26T21:20:22Z</time>
      </trkpt>
      <trkpt lat="48.09049" lon="7.43453">
        <ele>182</ele>
        <time>2019-12-26T21:20:25Z</time>
      </trkpt>
      <trkpt lat="48.09068" lon="7.43364">
        <ele>181</ele>
        <time>2019-12-26T21:21:15Z</time>
      </trkpt>
      <trkpt lat="48.08817" lon="7.43281">
        <ele>181</ele>
        <time>2019-12-26T21:24:41Z</time>
      </trkpt>
      <trkpt lat="48.08796" lon="7.4327">
        <ele>181</ele>
        <time>2019-12-26T21:24:58Z</time>
      </trkpt>
      <trkpt lat="48.08521" lon="7.43084">
        <ele>181</ele>
        <time>2019-12-26T21:29:00Z</time>
      </trkpt>
      <trkpt lat="48.08461" lon="7.43041">
        <ele>182</ele>
        <time>2019-12-26T21:29:53Z</time>
      </trkpt>
      <trkpt lat="48.08254" lon="7.42948">
        <ele>182</ele>
        <time>2019-12-26T21:32:46Z</time>
      </trkpt>
      <trkpt lat="48.08301" lon="7.42707">
        <ele>181</ele>
        <time>2019-12-26T21:35:01Z</time>
      </trkpt>
      <trkpt lat="48.08311" lon="7.42647">
        <ele>182</ele>
        <time>2019-12-26T21:35:34Z</time>
      </trkpt>
      <trkpt lat="48.08216" lon="7.42589">
        <ele>183</ele>
        <time>2019-12-26T21:36:56Z</time>
      </trkpt>
      <trkpt lat="48.0822" lon="7.42566">
        <ele>183</ele>
        <time>2019-12-26T21:37:09Z</time>
      </trkpt>
      <trkpt lat="48.08335" lon="7.41595">
        <ele>183</ele>
        <time>2019-12-26T21:45:56Z</time>
      </trkpt>
      <trkpt lat="48.08334" lon="7.41569">
        <ele>183</ele>
        <time>2019-12-26T21:46:10Z</time>
      </trkpt>
      <trkpt lat="48.08328" lon="7.41541">
        <ele>183</ele>
        <time>2019-12-26T21:46:26Z</time>
      </trkpt>
      <trkpt lat="48.08322" lon="7.41518">
        <ele>183</ele>
        <time>2019-12-26T21:46:39Z</time>
      </trkpt>
      <trkpt lat="48.08316" lon="7.41206">
        <ele>185</ele>
        <time>2019-12-26T21:49:26Z</time>
      </trkpt>
      <trkpt lat="48.08315" lon="7.41117">
        <ele>185</ele>
        <time>2019-12-26T21:50:13Z</time>
      </trkpt>
      <trkpt lat="48.08317" lon="7.41093">
        <ele>185</ele>
        <time>2019-12-26T21:50:26Z</time>
      </trkpt>
      <trkpt lat="48.08277" lon="7.41043">
        <ele>184</ele>
        <time>2019-12-26T21:51:08Z</time>
      </trkpt>
      <trkpt lat="48.08314" lon="7.40979">
        <ele>183</ele>
        <time>2019-12-26T21:51:53Z</time>
      </trkpt>
      <trkpt lat="48.08339" lon="7.4061">
        <ele>183</ele>
        <time>2019-12-26T21:55:12Z</time>
      </trkpt>
      <trkpt lat="48.08355" lon="7.40402">
        <ele>184</ele>
        <time>2019-12-26T21:57:04Z</time>
      </trkpt>
      <trkpt lat="48.08352" lon="7.40391">
        <ele>184</ele>
        <time>2019-12-26T21:57:10Z</time>
      </trkpt>
      <trkpt lat="48.08311" lon="7.40325">
        <ele>183</ele>
        <time>2019-12-26T21:57:58Z</time>
      </trkpt>
      <trkpt lat="48.08295" lon="7.40308">
        <ele>184</ele>
        <time>2019-12-26T21:58:14Z</time>
      </trkpt>
      <trkpt lat="48.08286" lon="7.40305">
        <ele>184</ele>
        <time>2019-12-26T21:58:21Z</time>
      </trkpt>
      <trkpt lat="48.08248" lon="7.4032">
        <ele>185</ele>
        <time>2019-12-26T21:58:53Z</time>
      </trkpt>
      <trkpt lat="48.08228" lon="7.40325">
        <ele>185</ele>
        <time>2019-12-26T21:59:09Z</time>
      </trkpt>
      <trkpt lat="48.08242" lon="7.39933">
        <ele>182</ele>
        <time>2019-12-26T22:02:39Z</time>
      </trkpt>
      <trkpt lat="48.08236" lon="7.39928">
        <ele>182</ele>
        <time>2019-12-26T22:02:45Z</time>
      </trkpt>
      <trkpt lat="48.08222" lon="7.39925">
        <ele>182</ele>
        <time>2019-12-26T22:02:56Z</time>
      </trkpt>
      <trkpt lat="48.08219" lon="7.39918">
        <ele>182</ele>
        <time>2019-12-26T22:03:00Z</time>
      </trkpt>
      <trkpt lat="48.08219" lon="7.39868">
        <ele>184</ele>
        <time>2019-12-26T22:03:27Z</time>
      </trkpt>
      <trkpt lat="48.08232" lon="7.39834">
        <ele>185</ele>
        <time>2019-12-26T22:03:48Z</time>
      </trkpt>
      <trkpt lat="48.08245" lon="7.39814">
        <ele>185</ele>
        <time>2019-12-26T22:04:03Z</time>
      </trkpt>
      <trkpt lat="48.08273" lon="7.39736">
        <ele>185</ele>
        <time>2019-12-26T22:04:50Z</time>
      </trkpt>
      <trkpt lat="48.0832" lon="7.39556">
        <ele>186</ele>
        <time>2019-12-26T22:06:34Z</time>
      </trkpt>
      <trkpt lat="48.08276" lon="7.39504">
        <ele>186</ele>
        <time>2019-12-26T22:07:19Z</time>
      </trkpt>
      <trkpt lat="48.08231" lon="7.39456">
        <ele>186</ele>
        <time>2019-12-26T22:08:03Z</time>
      </trkpt>
      <trkpt lat="48.0824" lon="7.3941">
        <ele>186</ele>
        <time>2019-12-26T22:08:29Z</time>
      </trkpt>
      <trkpt lat="48.08254" lon="7.39328">
        <ele>185</ele>
        <time>2019-12-26T22:09:14Z</time>
      </trkpt>
      <trkpt lat="48.08128" lon="7.39282">
        <ele>186</ele>
        <time>2019-12-26T22:10:58Z</time>
      </trkpt>
      <trkpt lat="48.08137" lon="7.39236">
        <ele>186</ele>
        <time>2019-12-26T22:11:23Z</time>
      </trkpt>
      <trkpt lat="48.08143" lon="7.3919">
        <ele>186</ele>
        <time>2019-12-26T22:11:48Z</time>
      </trkpt>
      <trkpt lat="48.08141" lon="7.39138">
        <ele>186</ele>
        <time>2019-12-26T22:12:16Z</time>
      </trkpt>
      <trkpt lat="48.08105" lon="7.38639">
        <ele>185</ele>
        <time>2019-12-26T22:16:45Z</time>
      </trkpt>
      <trkpt lat="48.0809" lon="7.38414">
        <ele>186</ele>
        <time>2019-12-26T22:18:46Z</time>
      </trkpt>
      <trkpt lat="48.08081" lon="7.38352">
        <ele>187</ele>
        <time>2019-12-26T22:19:20Z</time>
      </trkpt>
      <trkpt lat="48.08049" lon="7.3824">
        <ele>186</ele>
        <time>2019-12-26T22:20:25Z</time>
      </trkpt>
      <trkpt lat="48.08037" lon="7.38213">
        <ele>186</ele>
        <time>2019-12-26T22:20:42Z</time>
      </trkpt>
      <trkpt lat="48.08031" lon="7.38206">
        <ele>186</ele>
        <time>2019-12-26T22:20:48Z</time>
      </trkpt>
      <trkpt lat="48.08028" lon="7.38198">
        <ele>186</ele>
        <time>2019-12-26T22:20:53Z</time>
      </trkpt>
      <trkpt lat="48.08028" lon="7.38189">
        <ele>186</ele>
        <time>2019-12-26T22:20:58Z</time>
      </trkpt>
      <trkpt lat="48.08031" lon="7.3818">
        <ele>186</ele>
        <time>2019-12-26T22:21:03Z</time>
      </trkpt>
      <trkpt lat="48.08026" lon="7.38167">
        <ele>186</ele>
        <time>2019-12-26T22:21:11Z</time>
      </trkpt>
      <trkpt lat="48.08024" lon="7.38149">
        <ele>186</ele>
        <time>2019-12-26T22:21:21Z</time>
      </trkpt>
      <trkpt lat="48.08006" lon="7.38057">
        <ele>187</ele>
        <time>2019-12-26T22:22:12Z</time>
      </trkpt>
      <trkpt lat="48.07997" lon="7.37946">
        <ele>186</ele>
        <time>2019-12-26T22:23:12Z</time>
      </trkpt>
      <trkpt lat="48.0799" lon="7.37817">
        <ele>186</ele>
        <time>2019-12-26T22:24:21Z</time>
      </trkpt>
      <trkpt lat="48.07977" lon="7.37817">
        <ele>186</ele>
        <time>2019-12-26T22:24:32Z</time>
      </trkpt>
      <trkpt lat="48.07962" lon="7.37814">
        <ele>186</ele>
        <time>2019-12-26T22:24:44Z</time>
      </trkpt>
      <trkpt lat="48.07957" lon="7.37811">
        <ele>185</ele>
        <time>2019-12-26T22:24:48Z</time>
      </trkpt>
      <trkpt lat="48.0795" lon="7.37805">
        <ele>185</ele>
        <time>2019-12-26T22:24:55Z</time>
      </trkpt>
      <trkpt lat="48.07907" lon="7.37766">
        <ele>184</ele>
        <time>2019-12-26T22:25:35Z</time>
      </trkpt>
      <trkpt lat="48.07904" lon="7.37763">
        <ele>184</ele>
        <time>2019-12-26T22:25:38Z</time>
      </trkpt>
      <trkpt lat="48.07901" lon="7.37761">
        <ele>184</ele>
        <time>2019-12-26T22:25:40Z</time>
      </trkpt>
      <trkpt lat="48.07891" lon="7.37761">
        <ele>184</ele>
        <time>2019-12-26T22:25:48Z</time>
      </trkpt>
      <trkpt lat="48.07861" lon="7.37769">
        <ele>185</ele>
        <time>2019-12-26T22:26:13Z</time>
      </trkpt>
      <trkpt lat="48.07761" lon="7.37816">
        <ele>184</ele>
        <time>2019-12-26T22:27:37Z</time>
      </trkpt>
      <trkpt lat="48.07725" lon="7.37836">
        <ele>184</ele>
        <time>2019-12-26T22:28:08Z</time>
      </trkpt>
      <trkpt lat="48.0772" lon="7.37828">
        <ele>184</ele>
        <time>2019-12-26T22:28:13Z</time>
      </trkpt>
      <trkpt lat="48.07703" lon="7.37811">
        <ele>185</ele>
        <time>2019-12-26T22:28:30Z</time>
      </trkpt>
      <trkpt lat="48.07691" lon="7.37787">
        <ele>185</ele>
        <time>2019-12-26T22:28:46Z</time>
      </trkpt>
      <trkpt lat="48.0765" lon="7.37631">
        <ele>184</ele>
        <time>2019-12-26T22:30:15Z</time>
      </trkpt>
      <trkpt lat="48.07646" lon="7.37594">
        <ele>185</ele>
        <time>2019-12-26T22:30:36Z</time>
      </trkpt>
      <trkpt lat="48.07646" lon="7.37579">
        <ele>185</ele>
        <time>2019-12-26T22:30:44Z</time>
      </trkpt>
      <trkpt lat="48.07667" lon="7.37504">
        <ele>187</ele>
        <time>2019-12-26T22:31:27Z</time>
      </trkpt>
      <trkpt lat="48.07667" lon="7.37493">
        <ele>187</ele>
        <time>2019-12-26T22:31:33Z</time>
      </trkpt>
      <trkpt lat="48.07665" lon="7.37489">
        <ele>187</ele>
        <time>2019-12-26T22:31:36Z</time>
      </trkpt>
      <trkpt lat="48.07626" lon="7.37474">
        <ele>187</ele>
        <time>2019-12-26T22:32:08Z</time>
      </trkpt>
      <trkpt lat="48.07629" lon="7.3746">
        <ele>187</ele>
        <time>2019-12-26T22:32:16Z</time>
      </trkpt>
      <trkpt lat="48.07647" lon="7.37404">
        <ele>187</ele>
        <time>2019-12-26T22:32:49Z</time>
      </trkpt>
      <trkpt lat="48.07664" lon="7.37361">
        <ele>186</ele>
        <time>2019-12-26T22:33:16Z</time>
      </trkpt>
      <trkpt lat="48.07479" lon="7.37148">
        <ele>186</ele>
        <time>2019-12-26T22:36:23Z</time>
      </trkpt>
      <trkpt lat="48.07498" lon="7.37109">
        <ele>186</ele>
        <time>2019-12-26T22:36:48Z</time>
      </trkpt>
      <trkpt lat="48.07507" lon="7.37086">
        <ele>186</ele>
        <time>2019-12-26T22:37:03Z</time>
      </trkpt>
      <trkpt lat="48.07511" lon="7.37066">
        <ele>186</ele>
        <time>2019-12-26T22:37:14Z</time>
      </trkpt>
      <trkpt lat="48.075" lon="7.37057">
        <ele>186</ele>
        <time>2019-12-26T22:37:24Z</time>
      </trkpt>
      <trkpt lat="48.07453" lon="7.36993">
        <ele>185</ele>
        <time>2019-12-26T22:38:15Z</time>
      </trkpt>
      <trkpt lat="48.07399" lon="7.36938">
        <ele>186</ele>
        <time>2019-12-26T22:39:07Z</time>
      </trkpt>
      <trkpt lat="48.07388" lon="7.36925">
        <ele>186</ele>
        <time>2019-12-26T22:39:18Z</time>
      </trkpt>
      <trkpt lat="48.07299" lon="7.36852">
        <ele>188</ele>
        <time>2019-12-26T22:40:40Z</time>
      </trkpt>
      <trkpt lat="48.07233" lon="7.36833">
        <ele>189</ele>
        <time>2019-12-26T22:41:33Z</time>
      </trkpt>
      <trkpt lat="48.07211" lon="7.36834">
        <ele>188</ele>
        <time>2019-12-26T22:41:51Z</time>
      </trkpt>
      <trkpt lat="48.07177" lon="7.36816">
        <ele>187</ele>
        <time>2019-12-26T22:42:20Z</time>
      </trkpt>
      <trkpt lat="48.07133" lon="7.36785">
        <ele>187</ele>
        <time>2019-12-26T22:42:59Z</time>
      </trkpt>
      <trkpt lat="48.07111" lon="7.36761">
        <ele>186</ele>
        <time>2019-12-26T22:43:21Z</time>
      </trkpt>
      <trkpt lat="48.07095" lon="7.36751">
        <ele>186</ele>
        <time>2019-12-26T22:43:34Z</time>
      </trkpt>
      <trkpt lat="48.0706" lon="7.3674">
        <ele>186</ele>
        <time>2019-12-26T22:44:03Z</time>
      </trkpt>
      <trkpt lat="48.06951" lon="7.36719">
        <ele>187</ele>
        <time>2019-12-26T22:45:31Z</time>
      </trkpt>
      <trkpt lat="48.06955" lon="7.36673">
        <ele>187</ele>
        <time>2019-12-26T22:45:56Z</time>
      </trkpt>
      <trkpt lat="48.06961" lon="7.36591">
        <ele>186</ele>
        <time>2019-12-26T22:46:40Z</time>
      </trkpt>
      <trkpt lat="48.06962" lon="7.36582">
        <ele>186</ele>
        <time>2019-12-26T22:46:45Z</time>
      </trkpt>
      <trkpt lat="48.06969" lon="7.36521">
        <ele>186</ele>
        <time>2019-12-26T22:47:18Z</time>
      </trkpt>
      <trkpt lat="48.06921" lon="7.36506">
        <ele>187</ele>
        <time>2019-12-26T22:47:57Z</time>
      </trkpt>
      <trkpt lat="48.0692" lon="7.36487">
        <ele>187</ele>
        <time>2019-12-26T22:48:07Z</time>
      </trkpt>
      <trkpt lat="48.06916" lon="7.36382">
        <ele>188</ele>
        <time>2019-12-26T22:49:04Z</time>
      </trkpt>
      <trkpt lat="48.06917" lon="7.36303">
        <ele>189</ele>
        <time>2019-12-26T22:49:46Z</time>
      </trkpt>
      <trkpt lat="48.06812" lon="7.3632">
        <ele>188</ele>
        <time>2019-12-26T22:51:11Z</time>
      </trkpt>
      <trkpt lat="48.06813" lon="7.3629">
        <ele>188</ele>
        <time>2019-12-26T22:51:27Z</time>
      </trkpt>
      <trkpt lat="48.06811" lon="7.36257">
        <ele>188</ele>
        <time>2019-12-26T22:51:44Z</time>
      </trkpt>
      <trkpt lat="48.06807" lon="7.3623">
        <ele>188</ele>
        <time>2019-12-26T22:51:59Z</time>
      </trkpt>
      <trkpt lat="48.06771" lon="7.3607">
        <ele>189</ele>
        <time>2019-12-26T22:53:30Z</time>
      </trkpt>
      <trkpt lat="48.0678" lon="7.36065">
        <ele>189</ele>
        <time>2019-12-26T22:53:37Z</time>
      </trkpt>
      <trkpt lat="48.06775" lon="7.36054">
        <ele>189</ele>
        <time>2019-12-26T22:53:44Z</time>
      </trkpt>
      <trkpt lat="48.0666" lon="7.35936">
        <ele>189</ele>
        <time>2019-12-26T22:55:36Z</time>
      </trkpt>
      <trkpt lat="48.06639" lon="7.35921">
        <ele>188</ele>
        <time>2019-12-26T22:55:55Z</time>
      </trkpt>
      <trkpt lat="48.06639" lon="7.3591">
        <ele>188</ele>
        <time>2019-12-26T22:56:00Z</time>
      </trkpt>
      <trkpt lat="48.06665" lon="7.35832">
        <ele>188</ele>
        <time>2019-12-26T22:56:47Z</time>
      </trkpt>
      <trkpt lat="48.06652" lon="7.35806">
        <ele>187</ele>
        <time>2019-12-26T22:57:05Z</time>
      </trkpt>
      <trkpt lat="48.06603" lon="7.35738">
        <ele>187</ele>
        <time>2019-12-26T22:57:58Z</time>
      </trkpt>
      <trkpt lat="48.06601" lon="7.35731">
        <ele>186</ele>
        <time>2019-12-26T22:58:02Z</time>
      </trkpt>
      <trkpt lat="48.06596" lon="7.35735">
        <ele>187</ele>
        <time>2019-12-26T22:58:07Z</time>
      </trkpt>
      <trkpt lat="48.06592" lon="7.3573">
        <ele>186</ele>
        <time>2019-12-26T22:58:11Z</time>
      </trkpt>
      <trkpt lat="48.06583" lon="7.35711">
        <ele>186</ele>
        <time>2019-12-26T22:58:23Z</time>
      </trkpt>
      <trkpt lat="48.06553" lon="7.35631">
        <ele>186</ele>
        <time>2019-12-26T22:59:12Z</time>
      </trkpt>
      <trkpt lat="48.0655" lon="7.35615">
        <ele>186</ele>
        <time>2019-12-26T22:59:21Z</time>
      </trkpt>
      <trkpt lat="48.06549" lon="7.35599">
        <ele>186</ele>
        <time>2019-12-26T22:59:30Z</time>
      </trkpt>
      <trkpt lat="48.06551" lon="7.3557">
        <ele>186</ele>
        <time>2019-12-26T22:59:45Z</time>
      </trkpt>
      <trkpt lat="48.06551" lon="7.3554">
        <ele>187</ele>
        <time>2019-12-26T23:00:01Z</time>
      </trkpt>
      <trkpt lat="48.06548" lon="7.35519">
        <ele>187</ele>
        <time>2019-12-26T23:00:13Z</time>
      </trkpt>
      <trkpt lat="48.06534" lon="7.35488">
        <ele>187</ele>
        <time>2019-12-26T23:00:33Z</time>
      </trkpt>
      <trkpt lat="48.06523" lon="7.35469">
        <ele>187</ele>
        <time>2019-12-26T23:00:46Z</time>
      </trkpt>
      <trkpt lat="48.0651" lon="7.35454">
        <ele>187</ele>
        <time>2019-12-26T23:01:00Z</time>
      </trkpt>
      <trkpt lat="48.06476" lon="7.35431">
        <ele>186</ele>
        <time>2019-12-26T23:01:29Z</time>
      </trkpt>
      <trkpt lat="48.06457" lon="7.35421">
        <ele>187</ele>
        <time>2019-12-26T23:01:46Z</time>
      </trkpt>
      <trkpt lat="48.0646" lon="7.35417">
        <ele>186</ele>
        <time>2019-12-26T23:01:49Z</time>
      </trkpt>
      <trkpt lat="48.06466" lon="7.35404">
        <ele>186</ele>
        <time>2019-12-26T23:01:57Z</time>
      </trkpt>
      <trkpt lat="48.06505" lon="7.3524">
        <ele>188</ele>
        <time>2019-12-26T23:03:30Z</time>
      </trkpt>
      <trkpt lat="48.06537" lon="7.3512">
        <ele>190</ele>
        <time>2019-12-26T23:04:40Z</time>
      </trkpt>
      <trkpt lat="48.06545" lon="7.35109">
        <ele>191</ele>
        <time>2019-12-26T23:04:48Z</time>
      </trkpt>
      <trkpt lat="48.06548" lon="7.35094">
        <ele>191</ele>
        <time>2019-12-26T23:04:57Z</time>
      </trkpt>
      <trkpt lat="48.06454" lon="7.34983">
        <ele>190</ele>
        <time>2019-12-26T23:06:32Z</time>
      </trkpt>
      <trkpt lat="48.06361" lon="7.34878">
        <ele>191</ele>
        <time>2019-12-26T23:08:06Z</time>
      </trkpt>
      <trkpt lat="48.06275" lon="7.34786">
        <ele>190</ele>
        <time>2019-12-26T23:09:30Z</time>
      </trkpt>
      <trkpt lat="48.06259" lon="7.34771">
        <ele>190</ele>
        <time>2019-12-26T23:09:46Z</time>
      </trkpt>
      <trkpt lat="48.06195" lon="7.34736">
        <ele>189</ele>
        <time>2019-12-26T23:10:40Z</time>
      </trkpt>
      <trkpt lat="48.06044" lon="7.34674">
        <ele>187</ele>
        <time>2019-12-26T23:12:45Z</time>
      </trkpt>
      <trkpt lat="48.06022" lon="7.34677">
        <ele>188</ele>
        <time>2019-12-26T23:13:03Z</time>
      </trkpt>
      <trkpt lat="48.06015" lon="7.34675">
        <ele>188</ele>
        <time>2019-12-26T23:13:09Z</time>
      </trkpt>
      <trkpt lat="48.0601" lon="7.34671">
        <ele>189</ele>
        <time>2019-12-26T23:13:13Z</time>
      </trkpt>
      <trkpt lat="48.06" lon="7.34657">
        <ele>189</ele>
        <time>2019-12-26T23:13:24Z</time>
      </trkpt>
      <trkpt lat="48.0599" lon="7.3465">
        <ele>189</ele>
        <time>2019-12-26T23:13:33Z</time>
      </trkpt>
      <trkpt lat="48.05951" lon="7.34636">
        <ele>188</ele>
        <time>2019-12-26T23:14:05Z</time>
      </trkpt>
      <trkpt lat="48.05927" lon="7.34621">
        <ele>187</ele>
        <time>2019-12-26T23:14:26Z</time>
      </trkpt>
      <trkpt lat="48.05941" lon="7.3456">
        <ele>188</ele>
        <time>2019-12-26T23:15:01Z</time>
      </trkpt>
      <trkpt lat="48.05951" lon="7.34492">
        <ele>188</ele>
        <time>2019-12-26T23:15:38Z</time>
      </trkpt>
      <trkpt lat="48.05967" lon="7.34403">
        <ele>187</ele>
        <time>2019-12-26T23:16:27Z</time>
      </trkpt>
      <trkpt lat="48.05966" lon="7.3439">
        <ele>188</ele>
        <time>2019-12-26T23:16:34Z</time>
      </trkpt>
      <trkpt lat="48.0596" lon="7.34376">
        <ele>188</ele>
        <time>2019-12-26T23:16:43Z</time>
      </trkpt>
      <trkpt lat="48.05909" lon="7.34318">
        <ele>188</ele>
        <time>2019-12-26T23:17:34Z</time>
      </trkpt>
      <trkpt lat="48.05894" lon="7.34298">
        <ele>188</ele>
        <time>2019-12-26T23:17:51Z</time>
      </trkpt>
      <trkpt lat="48.05882" lon="7.34277">
        <ele>189</ele>
        <time>2019-12-26T23:18:05Z</time>
      </trkpt>
      <trkpt lat="48.05864" lon="7.34226">
        <ele>189</ele>
        <time>2019-12-26T23:18:36Z</time>
      </trkpt>
      <trkpt lat="48.05856" lon="7.3421">
        <ele>189</ele>
        <time>2019-12-26T23:18:47Z</time>
      </trkpt>
      <trkpt lat="48.05843" lon="7.34195">
        <ele>189</ele>
        <time>2019-12-26T23:19:00Z</time>
      </trkpt>
      <trkpt lat="48.05812" lon="7.34168">
        <ele>189</ele>
        <time>2019-12-26T23:19:29Z</time>
      </trkpt>
      <trkpt lat="48.05615" lon="7.33957">
        <ele>187</ele>
        <time>2019-12-26T23:22:43Z</time>
      </trkpt>
      <trkpt lat="48.05499" lon="7.33767">
        <ele>188</ele>
        <time>2019-12-26T23:25:00Z</time>
      </trkpt>
      <trkpt lat="48.0548" lon="7.33742">
        <ele>188</ele>
        <time>2019-12-26T23:25:21Z</time>
      </trkpt>
      <trkpt lat="48.05499" lon="7.3361">
        <ele>189</ele>
        <time>2019-12-26T23:26:33Z</time>
      </trkpt>
      <trkpt lat="48.05512" lon="7.33478">
        <ele>190</ele>
        <time>2019-12-26T23:27:44Z</time>
      </trkpt>
      <trkpt lat="48.05476" lon="7.33451">
        <ele>189</ele>
        <time>2019-12-26T23:28:17Z</time>
      </trkpt>
      <trkpt lat="48.05447" lon="7.3342">
        <ele>189</ele>
        <time>2019-12-26T23:28:45Z</time>
      </trkpt>
      <trkpt lat="48.05381" lon="7.33341">
        <ele>189</ele>
        <time>2019-12-26T23:29:53Z</time>
      </trkpt>
      <trkpt lat="48.05307" lon="7.33279">
        <ele>190</ele>
        <time>2019-12-26T23:31:01Z</time>
      </trkpt>
      <trkpt lat="48.05273" lon="7.3324">
        <ele>190</ele>
        <time>2019-12-26T23:31:35Z</time>
      </trkpt>
      <trkpt lat="48.05254" lon="7.33207">
        <ele>190</ele>
        <time>2019-12-26T23:31:58Z</time>
      </trkpt>
      <trkpt lat="48.05227" lon="7.33144">
        <ele>190</ele>
        <time>2019-12-26T23:32:38Z</time>
      </trkpt>
      <trkpt lat="48.05314" lon="7.32995">
        <ele>192</ele>
        <time>2019-12-26T23:34:24Z</time>
      </trkpt>
      <trkpt lat="48.05211" lon="7.32897">
        <ele>194</ele>
        <time>2019-12-26T23:36:02Z</time>
      </trkpt>
      <trkpt lat="48.05131" lon="7.32829">
        <ele>194</ele>
        <time>2019-12-26T23:37:16Z</time>
      </trkpt>
      <trkpt lat="48.05121" lon="7.32818">
        <ele>193</ele>
        <time>2019-12-26T23:37:26Z</time>
      </trkpt>
      <trkpt lat="48.05111" lon="7.328">
        <ele>193</ele>
        <time>2019-12-26T23:37:38Z</time>
      </trkpt>
      <trkpt lat="48.05079" lon="7.32726">
        <ele>193</ele>
        <time>2019-12-26T23:38:25Z</time>
      </trkpt>
      <trkpt lat="48.05067" lon="7.32704">
        <ele>194</ele>
        <time>2019-12-26T23:38:41Z</time>
      </trkpt>
      <trkpt lat="48.05055" lon="7.32688">
        <ele>194</ele>
        <time>2019-12-26T23:38:53Z</time>
      </trkpt>
      <trkpt lat="48.05035" lon="7.32672">
        <ele>194</ele>
        <time>2019-12-26T23:39:12Z</time>
      </trkpt>
      <trkpt lat="48.0502" lon="7.32664">
        <ele>195</ele>
        <time>2019-12-26T23:39:24Z</time>
      </trkpt>
      <trkpt lat="48.04948" lon="7.32647">
        <ele>193</ele>
        <time>2019-12-26T23:40:23Z</time>
      </trkpt>
      <trkpt lat="48.04908" lon="7.32631">
        <ele>191</ele>
        <time>2019-12-26T23:40:56Z</time>
      </trkpt>
      <trkpt lat="48.04772" lon="7.32575">
        <ele>191</ele>
        <time>2019-12-26T23:42:49Z</time>
      </trkpt>
      <trkpt lat="48.04751" lon="7.32564">
        <ele>192</ele>
        <time>2019-12-26T23:43:07Z</time>
      </trkpt>
      <trkpt lat="48.04735" lon="7.32552">
        <ele>192</ele>
        <time>2019-12-26T23:43:21Z</time>
      </trkpt>
      <trkpt lat="48.04722" lon="7.32539">
        <ele>191</ele>
        <time>2019-12-26T23:43:33Z</time>
      </trkpt>
      <trkpt lat="48.04705" lon="7.32512">
        <ele>191</ele>
        <time>2019-12-26T23:43:53Z</time>
      </trkpt>
      <trkpt lat="48.0463" lon="7.32368">
        <ele>191</ele>
        <time>2019-12-26T23:45:31Z</time>
      </trkpt>
      <trkpt lat="48.04595" lon="7.32306">
        <ele>192</ele>
        <time>2019-12-26T23:46:14Z</time>
      </trkpt>
      <trkpt lat="48.04581" lon="7.32295">
        <ele>191</ele>
        <time>2019-12-26T23:46:27Z</time>
      </trkpt>
      <trkpt lat="48.04563" lon="7.32288">
        <ele>191</ele>
        <time>2019-12-26T23:46:42Z</time>
      </trkpt>
      <trkpt lat="48.04546" lon="7.3229">
        <ele>190</ele>
        <time>2019-12-26T23:46:56Z</time>
      </trkpt>
      <trkpt lat="48.04527" lon="7.32304">
        <ele>190</ele>
        <time>2019-12-26T23:47:13Z</time>
      </trkpt>
      <trkpt lat="48.04513" lon="7.32322">
        <ele>189</ele>
        <time>2019-12-26T23:47:27Z</time>
      </trkpt>
      <trkpt lat="48.04494" lon="7.3234">
        <ele>188</ele>
        <time>2019-12-26T23:47:45Z</time>
      </trkpt>
      <trkpt lat="48.04467" lon="7.32354">
        <ele>188</ele>
        <time>2019-12-26T23:48:08Z</time>
      </trkpt>
      <trkpt lat="48.04452" lon="7.32357">
        <ele>188</ele>
        <time>2019-12-26T23:48:20Z</time>
      </trkpt>
      <trkpt lat="48.04424" lon="7.32358">
        <ele>189</ele>
        <time>2019-12-26T23:48:43Z</time>
      </trkpt>
      <trkpt lat="48.04383" lon="7.32351">
        <ele>189</ele>
        <time>2019-12-26T23:49:16Z</time>
      </trkpt>
      <trkpt lat="48.04325" lon="7.32333">
        <ele>189</ele>
        <time>2019-12-26T23:50:03Z</time>
      </trkpt>
      <trkpt lat="48.04303" lon="7.32329">
        <ele>189</ele>
        <time>2019-12-26T23:50:21Z</time>
      </trkpt>
      <trkpt lat="48.04186" lon="7.32269">
        <ele>189</ele>
        <time>2019-12-26T23:52:00Z</time>
      </trkpt>
      <trkpt lat="48.04105" lon="7.32222">
        <ele>189</ele>
        <time>2019-12-26T23:53:10Z</time>
      </trkpt>
      <trkpt lat="48.04072" lon="7.32186">
        <ele>190</ele>
        <time>2019-12-26T23:53:42Z</time>
      </trkpt>
      <trkpt lat="48.04066" lon="7.32165">
        <ele>190</ele>
        <time>2019-12-26T23:53:55Z</time>
      </trkpt>
      <trkpt lat="48.04064" lon="7.32145">
        <ele>190</ele>
        <time>2019-12-26T23:54:05Z</time>
      </trkpt>
      <trkpt lat="48.04069" lon="7.32091">
        <ele>190</ele>
        <time>2019-12-26T23:54:35Z</time>
      </trkpt>
      <trkpt lat="48.04067" lon="7.32079">
        <ele>190</ele>
        <time>2019-12-26T23:54:41Z</time>
      </trkpt>
      <trkpt lat="48.04052" lon="7.32048">
        <ele>190</ele>
        <time>2019-12-26T23:55:02Z</time>
      </trkpt>
      <trkpt lat="48.04054" lon="7.32041">
        <ele>190</ele>
        <time>2019-12-26T23:55:06Z</time>
      </trkpt>
      <trkpt lat="48.04055" lon="7.32034">
        <ele>190</ele>
        <time>2019-12-26T23:55:10Z</time>
      </trkpt>
      <trkpt lat="48.04054" lon="7.32027">
        <ele>190</ele>
        <time>2019-12-26T23:55:13Z</time>
      </trkpt>
      <trkpt lat="48.04051" lon="7.32021">
        <ele>190</ele>
        <time>2019-12-26T23:55:17Z</time>
      </trkpt>
      <trkpt lat="48.04044" lon="7.32017">
        <ele>190</ele>
        <time>2019-12-26T23:55:23Z</time>
      </trkpt>
      <trkpt lat="48.04045" lon="7.32">
        <ele>190</ele>
        <time>2019-12-26T23:55:33Z</time>
      </trkpt>
      <trkpt lat="48.04041" lon="7.32002">
        <ele>190</ele>
        <time>2019-12-26T23:55:36Z</time>
      </trkpt>
      <trkpt lat="48.04035" lon="7.32009">
        <ele>190</ele>
        <time>2019-12-26T23:55:42Z</time>
      </trkpt>
      <trkpt lat="48.04031" lon="7.32011">
        <ele>190</ele>
        <time>2019-12-26T23:55:45Z</time>
      </trkpt>
      <trkpt lat="48.04003" lon="7.32002">
        <ele>189</ele>
        <time>2019-12-26T23:56:08Z</time>
      </trkpt>
      <trkpt lat="48.03997" lon="7.32003">
        <ele>189</ele>
        <time>2019-12-26T23:56:13Z</time>
      </trkpt>
      <trkpt lat="48.03992" lon="7.32006">
        <ele>189</ele>
        <time>2019-12-26T23:56:17Z</time>
      </trkpt>
      <trkpt lat="48.03963" lon="7.32033">
        <ele>190</ele>
        <time>2019-12-26T23:56:45Z</time>
      </trkpt>
      <trkpt lat="48.03957" lon="7.32035">
        <ele>190</ele>
        <time>2019-12-26T23:56:50Z</time>
      </trkpt>
      <trkpt lat="48.0395" lon="7.32036">
        <ele>190</ele>
        <time>2019-12-26T23:56:55Z</time>
      </trkpt>
      <trkpt lat="48.03938" lon="7.32032">
        <ele>190</ele>
        <time>2019-12-26T23:57:05Z</time>
      </trkpt>
      <trkpt lat="48.03917" lon="7.32022">
        <ele>190</ele>
        <time>2019-12-26T23:57:23Z</time>
      </trkpt>
      <trkpt lat="48.03904" lon="7.32025">
        <ele>190</ele>
        <time>2019-12-26T23:57:33Z</time>
      </trkpt>
      <trkpt lat="48.03899" lon="7.3203">
        <ele>190</ele>
        <time>2019-12-26T23:57:38Z</time>
      </trkpt>
      <trkpt lat="48.03888" lon="7.32048">
        <ele>190</ele>
        <time>2019-12-26T23:57:51Z</time>
      </trkpt>
      <trkpt lat="48.03879" lon="7.32052">
        <ele>189</ele>
        <time>2019-12-26T23:57:59Z</time>
      </trkpt>
      <trkpt lat="48.03874" lon="7.3205">
        <ele>189</ele>
        <time>2019-12-26T23:58:03Z</time>
      </trkpt>
      <trkpt lat="48.03507" lon="7.31842">
        <ele>191</ele>
        <time>2019-12-27T00:03:17Z</time>
      </trkpt>
      <trkpt lat="48.03379" lon="7.31767">
        <ele>192</ele>
        <time>2019-12-27T00:05:07Z</time>
      </trkpt>
      <trkpt lat="48.03256" lon="7.31694">
        <ele>192</ele>
        <time>2019-12-27T00:06:53Z</time>
      </trkpt>
      <trkpt lat="48.03278" lon="7.31513">
        <ele>194</ele>
        <time>2019-12-27T00:08:32Z</time>
      </trkpt>
      <trkpt lat="48.03277" lon="7.31498">
        <ele>195</ele>
        <time>2019-12-27T00:08:40Z</time>
      </trkpt>
      <trkpt lat="48.0328" lon="7.31454">
        <ele>195</ele>
        <time>2019-12-27T00:09:03Z</time>
      </trkpt>
      <trkpt lat="48.03307" lon="7.31183">
        <ele>198</ele>
        <time>2019-12-27T00:11:30Z</time>
      </trkpt>
      <trkpt lat="48.03231" lon="7.3117">
        <ele>198</ele>
        <time>2019-12-27T00:12:31Z</time>
      </trkpt>
      <trkpt lat="48.03223" lon="7.3117">
        <ele>198</ele>
        <time>2019-12-27T00:12:38Z</time>
      </trkpt>
      <trkpt lat="48.03175" lon="7.31176">
        <ele>199</ele>
        <time>2019-12-27T00:13:16Z</time>
      </trkpt>
      <trkpt lat="48.03154" lon="7.31163">
        <ele>199</ele>
        <time>2019-12-27T00:13:35Z</time>
      </trkpt>
      <trkpt lat="48.0313" lon="7.31154">
        <ele>200</ele>
        <time>2019-12-27T00:13:54Z</time>
      </trkpt>
      <trkpt lat="48.03087" lon="7.31147">
        <ele>202</ele>
        <time>2019-12-27T00:14:29Z</time>
      </trkpt>
      <trkpt lat="48.03" lon="7.31125">
        <ele>201</ele>
        <time>2019-12-27T00:15:40Z</time>
      </trkpt>
      <trkpt lat="48.02947" lon="7.31119">
        <ele>200</ele>
        <time>2019-12-27T00:16:22Z</time>
      </trkpt>
      <trkpt lat="48.02857" lon="7.31123">
        <ele>200</ele>
        <time>2019-12-27T00:17:34Z</time>
      </trkpt>
      <trkpt lat="48.02725" lon="7.31111">
        <ele>203</ele>
        <time>2019-12-27T00:19:20Z</time>
      </trkpt>
      <trkpt lat="48.0268" lon="7.31131">
        <ele>204</ele>
        <time>2019-12-27T00:19:58Z</time>
      </trkpt>
      <trkpt lat="48.02648" lon="7.31141">
        <ele>205</ele>
        <time>2019-12-27T00:20:24Z</time>
      </trkpt>
      <trkpt lat="48.02592" lon="7.31147">
        <ele>208</ele>
        <time>2019-12-27T00:21:09Z</time>
      </trkpt>
      <trkpt lat="48.02584" lon="7.31153">
        <ele>208</ele>
        <time>2019-12-27T00:21:16Z</time>
      </trkpt>
      <trkpt lat="48.02564" lon="7.31144">
        <ele>210</ele>
        <time>2019-12-27T00:21:33Z</time>
      </trkpt>
      <trkpt lat="48.02554" lon="7.3112">
        <ele>211</ele>
        <time>2019-12-27T00:21:48Z</time>
      </trkpt>
      <trkpt lat="48.0253" lon="7.31073">
        <ele>215</ele>
        <time>2019-12-27T00:22:20Z</time>
      </trkpt>
      <trkpt lat="48.02496" lon="7.31024">
        <ele>220</ele>
        <time>2019-12-27T00:22:57Z</time>
      </trkpt>
      <trkpt lat="48.02474" lon="7.30995">
        <ele>223</ele>
        <time>2019-12-27T00:23:21Z</time>
      </trkpt>
      <trkpt lat="48.02415" lon="7.30954">
        <ele>231</ele>
        <time>2019-12-27T00:24:13Z</time>
      </trkpt>
      <trkpt lat="48.02381" lon="7.30927">
        <ele>234</ele>
        <time>2019-12-27T00:24:44Z</time>
      </trkpt>
      <trkpt lat="48.02346" lon="7.30876">
        <ele>238</ele>
        <time>2019-12-27T00:25:23Z</time>
      </trkpt>
      <trkpt lat="48.02336" lon="7.30852">
        <ele>240</ele>
        <time>2019-12-27T00:25:38Z</time>
      </trkpt>
      <trkpt lat="48.02319" lon="7.30799">
        <ele>244</ele>
        <time>2019-12-27T00:26:10Z</time>
      </trkpt>
      <trkpt lat="48.02305" lon="7.30766">
        <ele>246</ele>
        <time>2019-12-27T00:26:31Z</time>
      </trkpt>
      <trkpt lat="48.02274" lon="7.30703">
        <ele>250</ele>
        <time>2019-12-27T00:27:12Z</time>
      </trkpt>
      <trkpt lat="48.02223" lon="7.30604">
        <ele>257</ele>
        <time>2019-12-27T00:28:19Z</time>
      </trkpt>
      <trkpt lat="48.02181" lon="7.30513">
        <ele>261</ele>
        <time>2019-12-27T00:29:19Z</time>
      </trkpt>
      <trkpt lat="48.02175" lon="7.30504">
        <ele>262</ele>
        <time>2019-12-27T00:29:25Z</time>
      </trkpt>
      <trkpt lat="48.02166" lon="7.30458">
        <ele>263</ele>
        <time>2019-12-27T00:29:51Z</time>
      </trkpt>
      <trkpt lat="48.02166" lon="7.30403">
        <ele>266</ele>
        <time>2019-12-27T00:30:20Z</time>
      </trkpt>
      <trkpt lat="48.02155" lon="7.30338">
        <ele>269</ele>
        <time>2019-12-27T00:30:56Z</time>
      </trkpt>
      <trkpt lat="48.02151" lon="7.30251">
        <ele>274</ele>
        <time>2019-12-27T00:31:43Z</time>
      </trkpt>
      <trkpt lat="48.02154" lon="7.30168">
        <ele>277</ele>
        <time>2019-12-27T00:32:28Z</time>
      </trkpt>
      <trkpt lat="48.02076" lon="7.30157">
        <ele>272</ele>
        <time>2019-12-27T00:33:30Z</time>
      </trkpt>
      <trkpt lat="48.02" lon="7.30093">
        <ele>268</ele>
        <time>2019-12-27T00:34:40Z</time>
      </trkpt>
      <trkpt lat="48.01987" lon="7.30078">
        <ele>268</ele>
        <time>2019-12-27T00:34:53Z</time>
      </trkpt>
      <trkpt lat="48.01964" lon="7.3004">
        <ele>267</ele>
        <time>2019-12-27T00:35:21Z</time>
      </trkpt>
      <trkpt lat="48.01957" lon="7.30024">
        <ele>268</ele>
        <time>2019-12-27T00:35:31Z</time>
      </trkpt>
      <trkpt lat="48.01951" lon="7.30026">
        <ele>267</ele>
        <time>2019-12-27T00:35:36Z</time>
      </trkpt>
      <trkpt lat="48.01929" lon="7.30008">
        <ele>265</ele>
        <time>2019-12-27T00:35:56Z</time>
      </trkpt>
      <trkpt lat="48.01829" lon="7.29959">
        <ele>254</ele>
        <time>2019-12-27T00:37:20Z</time>
      </trkpt>
      <trkpt lat="48.01794" lon="7.29936">
        <ele>253</ele>
        <time>2019-12-27T00:37:51Z</time>
      </trkpt>
      <trkpt lat="48.01787" lon="7.29927">
        <ele>253</ele>
        <time>2019-12-27T00:37:58Z</time>
      </trkpt>
      <trkpt lat="48.01782" lon="7.29925">
        <ele>252</ele>
        <time>2019-12-27T00:38:02Z</time>
      </trkpt>
      <trkpt lat="48.01783" lon="7.29915">
        <ele>253</ele>
        <time>2019-12-27T00:38:08Z</time>
      </trkpt>
      <trkpt lat="48.01776" lon="7.29912">
        <ele>253</ele>
        <time>2019-12-27T00:38:14Z</time>
      </trkpt>
      <trkpt lat="48.01751" lon="7.29891">
        <ele>252</ele>
        <time>2019-12-27T00:38:37Z</time>
      </trkpt>
      <trkpt lat="48.01714" lon="7.29867">
        <ele>251</ele>
        <time>2019-12-27T00:39:09Z</time>
      </trkpt>
      <trkpt lat="48.01703" lon="7.29851">
        <ele>251</ele>
        <time>2019-12-27T00:39:21Z</time>
      </trkpt>
      <trkpt lat="48.01685" lon="7.2981">
        <ele>251</ele>
        <time>2019-12-27T00:39:47Z</time>
      </trkpt>
      <trkpt lat="48.01662" lon="7.29768">
        <ele>251</ele>
        <time>2019-12-27T00:40:17Z</time>
      </trkpt>
      <trkpt lat="48.01634" lon="7.29734">
        <ele>252</ele>
        <time>2019-12-27T00:40:45Z</time>
      </trkpt>
      <trkpt lat="48.01624" lon="7.29725">
        <ele>252</ele>
        <time>2019-12-27T00:40:55Z</time>
      </trkpt>
      <trkpt lat="48.01618" lon="7.29722">
        <ele>252</ele>
        <time>2019-12-27T00:41:00Z</time>
      </trkpt>
      <trkpt lat="48.01594" lon="7.29661">
        <ele>253</ele>
        <time>2019-12-27T00:41:38Z</time>
      </trkpt>
      <trkpt lat="48.01588" lon="7.29638">
        <ele>253</ele>
        <time>2019-12-27T00:41:51Z</time>
      </trkpt>
      <trkpt lat="48.01586" lon="7.29622">
        <ele>253</ele>
        <time>2019-12-27T00:42:00Z</time>
      </trkpt>
      <trkpt lat="48.01585" lon="7.29538">
        <ele>255</ele>
        <time>2019-12-27T00:42:45Z</time>
      </trkpt>
      <trkpt lat="48.01582" lon="7.29522">
        <ele>256</ele>
        <time>2019-12-27T00:42:54Z</time>
      </trkpt>
      <trkpt lat="48.01555" lon="7.29477">
        <ele>256</ele>
        <time>2019-12-27T00:43:26Z</time>
      </trkpt>
      <trkpt lat="48.01538" lon="7.29439">
        <ele>257</ele>
        <time>2019-12-27T00:43:50Z</time>
      </trkpt>
      <trkpt lat="48.0153" lon="7.29414">
        <ele>257</ele>
        <time>2019-12-27T00:44:05Z</time>
      </trkpt>
      <trkpt lat="48.01527" lon="7.29396">
        <ele>258</ele>
        <time>2019-12-27T00:44:15Z</time>
      </trkpt>
      <trkpt lat="48.01525" lon="7.29348">
        <ele>259</ele>
        <time>2019-12-27T00:44:41Z</time>
      </trkpt>
      <trkpt lat="48.01474" lon="7.29311">
        <ele>257</ele>
        <time>2019-12-27T00:45:26Z</time>
      </trkpt>
      <trkpt lat="48.01462" lon="7.29305">
        <ele>256</ele>
        <time>2019-12-27T00:45:36Z</time>
      </trkpt>
      <trkpt lat="48.01465" lon="7.29234">
        <ele>259</ele>
        <time>2019-12-27T00:46:15Z</time>
      </trkpt>
      <trkpt lat="48.01464" lon="7.29195">
        <ele>260</ele>
        <time>2019-12-27T00:46:35Z</time>
      </trkpt>
      <trkpt lat="48.0146" lon="7.29153">
        <ele>261</ele>
        <time>2019-12-27T00:46:58Z</time>
      </trkpt>
      <trkpt lat="48.01449" lon="7.29114">
        <ele>261</ele>
        <time>2019-12-27T00:47:21Z</time>
      </trkpt>
      <trkpt lat="48.0144" lon="7.29062">
        <ele>261</ele>
        <time>2019-12-27T00:47:50Z</time>
      </trkpt>
      <trkpt lat="48.01436" lon="7.29026">
        <ele>262</ele>
        <time>2019-12-27T00:48:09Z</time>
      </trkpt>
      <trkpt lat="48.01439" lon="7.28935">
        <ele>265</ele>
        <time>2019-12-27T00:48:58Z</time>
      </trkpt>
      <trkpt lat="48.01435" lon="7.28918">
        <ele>265</ele>
        <time>2019-12-27T00:49:08Z</time>
      </trkpt>
      <trkpt lat="48.01404" lon="7.28838">
        <ele>263</ele>
        <time>2019-12-27T00:49:57Z</time>
      </trkpt>
      <trkpt lat="48.01385" lon="7.28797">
        <ele>262</ele>
        <time>2019-12-27T00:50:24Z</time>
      </trkpt>
      <trkpt lat="48.01377" lon="7.28774">
        <ele>261</ele>
        <time>2019-12-27T00:50:38Z</time>
      </trkpt>
      <trkpt lat="48.01364" lon="7.28724">
        <ele>260</ele>
        <time>2019-12-27T00:51:06Z</time>
      </trkpt>
      <trkpt lat="48.01353" lon="7.28664">
        <ele>260</ele>
        <time>2019-12-27T00:51:40Z</time>
      </trkpt>
      <trkpt lat="48.01346" lon="7.28655">
        <ele>259</ele>
        <time>2019-12-27T00:51:47Z</time>
      </trkpt>
      <trkpt lat="48.01282" lon="7.28614">
        <ele>253</ele>
        <time>2019-12-27T00:52:43Z</time>
      </trkpt>
      <trkpt lat="48.01213" lon="7.28578">
        <ele>247</ele>
        <time>2019-12-27T00:53:41Z</time>
      </trkpt>
      <trkpt lat="48.01184" lon="7.28567">
        <ele>245</ele>
        <time>2019-12-27T00:54:05Z</time>
      </trkpt>
      <trkpt lat="48.01174" lon="7.28558">
        <ele>244</ele>
        <time>2019-12-27T00:54:15Z</time>
      </trkpt>
      <trkpt lat="48.01156" lon="7.28538">
        <ele>243</ele>
        <time>2019-12-27T00:54:33Z</time>
      </trkpt>
      <trkpt lat="48.01141" lon="7.28509">
        <ele>242</ele>
        <time>2019-12-27T00:54:52Z</time>
      </trkpt>
      <trkpt lat="48.01132" lon="7.28477">
        <ele>242</ele>
        <time>2019-12-27T00:55:11Z</time>
      </trkpt>
      <trkpt lat="48.01103" lon="7.28404">
        <ele>242</ele>
        <time>2019-12-27T00:55:56Z</time>
      </trkpt>
      <trkpt lat="48.01085" lon="7.28303">
        <ele>245</ele>
        <time>2019-12-27T00:56:52Z</time>
      </trkpt>
      <trkpt lat="48.01072" lon="7.2825">
        <ele>248</ele>
        <time>2019-12-27T00:57:23Z</time>
      </trkpt>
      <trkpt lat="48.01051" lon="7.28205">
        <ele>251</ele>
        <time>2019-12-27T00:57:52Z</time>
      </trkpt>
      <trkpt lat="48.01033" lon="7.28177">
        <ele>252</ele>
        <time>2019-12-27T00:58:13Z</time>
      </trkpt>
      <trkpt lat="48.01005" lon="7.28161">
        <ele>253</ele>
        <time>2019-12-27T00:58:37Z</time>
      </trkpt>
      <trkpt lat="48.00971" lon="7.28137">
        <ele>254</ele>
        <time>2019-12-27T00:59:07Z</time>
      </trkpt>
      <trkpt lat="48.00938" lon="7.28105">
        <ele>257</ele>
        <time>2019-12-27T00:59:38Z</time>
      </trkpt>
      <trkpt lat="48.00924" lon="7.28095">
        <ele>258</ele>
        <time>2019-12-27T00:59:51Z</time>
      </trkpt>
      <trkpt lat="48.00856" lon="7.28062">
        <ele>256</ele>
        <time>2019-12-27T01:00:48Z</time>
      </trkpt>
      <trkpt lat="48.00826" lon="7.28039">
        <ele>256</ele>
        <time>2019-12-27T01:01:15Z</time>
      </trkpt>
      <trkpt lat="48.00761" lon="7.2795">
        <ele>259</ele>
        <time>2019-12-27T01:02:26Z</time>
      </trkpt>
      <trkpt lat="48.00746" lon="7.27927">
        <ele>260</ele>
        <time>2019-12-27T01:02:43Z</time>
      </trkpt>
      <trkpt lat="48.00701" lon="7.27874">
        <ele>261</ele>
        <time>2019-12-27T01:03:29Z</time>
      </trkpt>
      <trkpt lat="48.00675" lon="7.27827">
        <ele>263</ele>
        <time>2019-12-27T01:04:01Z</time>
      </trkpt>
      <trkpt lat="48.00659" lon="7.27788">
        <ele>264</ele>
        <time>2019-12-27T01:04:26Z</time>
      </trkpt>
      <trkpt lat="48.00622" lon="7.27755">
        <ele>263</ele>
        <time>2019-12-27T01:05:00Z</time>
      </trkpt>
      <trkpt lat="48.00612" lon="7.27742">
        <ele>263</ele>
        <time>2019-12-27T01:05:11Z</time>
      </trkpt>
      <trkpt lat="48.00607" lon="7.27682">
        <ele>265</ele>
        <time>2019-12-27T01:05:43Z</time>
      </trkpt>
      <trkpt lat="48.00593" lon="7.27679">
        <ele>264</ele>
        <time>2019-12-27T01:05:55Z</time>
      </trkpt>
      <trkpt lat="48.00555" lon="7.27646">
        <ele>264</ele>
        <time>2019-12-27T01:06:30Z</time>
      </trkpt>
      <trkpt lat="48.00518" lon="7.27618">
        <ele>263</ele>
        <time>2019-12-27T01:07:03Z</time>
      </trkpt>
      <trkpt lat="48.00483" lon="7.27604">
        <ele>262</ele>
        <time>2019-12-27T01:07:32Z</time>
      </trkpt>
      <trkpt lat="48.00441" lon="7.27597">
        <ele>262</ele>
        <time>2019-12-27T01:08:06Z</time>
      </trkpt>
      <trkpt lat="48.00439" lon="7.276">
        <ele>262</ele>
        <time>2019-12-27T01:08:08Z</time>
      </trkpt>
      <trkpt lat="48.00431" lon="7.27577">
        <ele>264</ele>
        <time>2019-12-27T01:08:22Z</time>
      </trkpt>
      <trkpt lat="48.00412" lon="7.27538">
        <ele>267</ele>
        <time>2019-12-27T01:08:48Z</time>
      </trkpt>
      <trkpt lat="48.00428" lon="7.27526">
        <ele>268</ele>
        <time>2019-12-27T01:09:02Z</time>
      </trkpt>
      <trkpt lat="48.00453" lon="7.27518">
        <ele>270</ele>
        <time>2019-12-27T01:09:23Z</time>
      </trkpt>
      <trkpt lat="48.00457" lon="7.27521">
        <ele>270</ele>
        <time>2019-12-27T01:09:26Z</time>
      </trkpt>
      <trkpt lat="48.00453" lon="7.27518">
        <ele>270</ele>
        <time>2019-12-27T01:09:30Z</time>
      </trkpt>
      <trkpt lat="48.00456" lon="7.27491">
        <ele>274</ele>
        <time>2019-12-27T01:09:45Z</time>
      </trkpt>
      <trkpt lat="48.00464" lon="7.27486">
        <ele>275</ele>
        <time>2019-12-27T01:09:52Z</time>
      </trkpt>
      <trkpt lat="48.00473" lon="7.27488">
        <ele>276</ele>
        <time>2019-12-27T01:09:59Z</time>
      </trkpt>
      <trkpt lat="48.00478" lon="7.27495">
        <ele>274</ele>
        <time>2019-12-27T01:10:04Z</time>
      </trkpt>
      <trkpt lat="48.00483" lon="7.27495">
        <ele>275</ele>
        <time>2019-12-27T01:10:08Z</time>
      </trkpt>
      <trkpt lat="48.00478" lon="7.27495">
        <ele>274</ele>
        <time>2019-12-27T01:10:12Z</time>
      </trkpt>
      <trkpt lat="48.00473" lon="7.27488">
        <ele>276</ele>
        <time>2019-12-27T01:10:18Z</time>
      </trkpt>
      <trkpt lat="48.00464" lon="7.27486">
        <ele>275</ele>
        <time>2019-12-27T01:10:25Z</time>
      </trkpt>
      <trkpt lat="48.00456" lon="7.27491">
        <ele>274</ele>
        <time>2019-12-27T01:10:32Z</time>
      </trkpt>
      <trkpt lat="48.00453" lon="7.27518">
        <ele>270</ele>
        <time>2019-12-27T01:10:47Z</time>
      </trkpt>
      <trkpt lat="48.00428" lon="7.27526">
        <ele>268</ele>
        <time>2019-12-27T01:11:07Z</time>
      </trkpt>
      <trkpt lat="48.00412" lon="7.27538">
        <ele>267</ele>
        <time>2019-12-27T01:11:22Z</time>
      </trkpt>
      <trkpt lat="48.00404" lon="7.27523">
        <ele>268</ele>
        <time>2019-12-27T01:11:32Z</time>
      </trkpt>
      <trkpt lat="48.00395" lon="7.27517">
        <ele>269</ele>
        <time>2019-12-27T01:11:40Z</time>
      </trkpt>
      <trkpt lat="48.00396" lon="7.27495">
        <ele>271</ele>
        <time>2019-12-27T01:11:52Z</time>
      </trkpt>
      <trkpt lat="48.00393" lon="7.27466">
        <ele>274</ele>
        <time>2019-12-27T01:12:07Z</time>
      </trkpt>
      <trkpt lat="48.00397" lon="7.27448">
        <ele>276</ele>
        <time>2019-12-27T01:12:17Z</time>
      </trkpt>
      <trkpt lat="48.00392" lon="7.27393">
        <ele>284</ele>
        <time>2019-12-27T01:12:47Z</time>
      </trkpt>
      <trkpt lat="48.00372" lon="7.27372">
        <ele>287</ele>
        <time>2019-12-27T01:13:07Z</time>
      </trkpt>
      <trkpt lat="48.00352" lon="7.27359">
        <ele>289</ele>
        <time>2019-12-27T01:13:24Z</time>
      </trkpt>
      <trkpt lat="48.00383" lon="7.2732">
        <ele>297</ele>
        <time>2019-12-27T01:13:57Z</time>
      </trkpt>
      <trkpt lat="48.00395" lon="7.27311">
        <ele>300</ele>
        <time>2019-12-27T01:14:07Z</time>
      </trkpt>
      <trkpt lat="48.00442" lon="7.27306">
        <ele>306</ele>
        <time>2019-12-27T01:14:45Z</time>
      </trkpt>
      <trkpt lat="48.00455" lon="7.27301">
        <ele>309</ele>
        <time>2019-12-27T01:14:56Z</time>
      </trkpt>
      <trkpt lat="48.00469" lon="7.27294">
        <ele>313</ele>
        <time>2019-12-27T01:15:08Z</time>
      </trkpt>
      <trkpt lat="48.00479" lon="7.2728">
        <ele>316</ele>
        <time>2019-12-27T01:15:19Z</time>
      </trkpt>
      <trkpt lat="48.00489" lon="7.27245">
        <ele>322</ele>
        <time>2019-12-27T01:15:39Z</time>
      </trkpt>
      <trkpt lat="48.005" lon="7.27218">
        <ele>325</ele>
        <time>2019-12-27T01:15:56Z</time>
      </trkpt>
      <trkpt lat="48.00518" lon="7.27178">
        <ele>331</ele>
        <time>2019-12-27T01:16:22Z</time>
      </trkpt>
      <trkpt lat="48.0053" lon="7.27142">
        <ele>335</ele>
        <time>2019-12-27T01:16:43Z</time>
      </trkpt>
      <trkpt lat="48.0054" lon="7.27121">
        <ele>338</ele>
        <time>2019-12-27T01:16:57Z</time>
      </trkpt>
      <trkpt lat="48.00557" lon="7.27098">
        <ele>343</ele>
        <time>2019-12-27T01:17:15Z</time>
      </trkpt>
      <trkpt lat="48.00567" lon="7.27092">
        <ele>346</ele>
        <time>2019-12-27T01:17:24Z</time>
      </trkpt>
      <trkpt lat="48.00554" lon="7.26992">
        <ele>352</ele>
        <time>2019-12-27T01:18:19Z</time>
      </trkpt>
      <trkpt lat="48.00537" lon="7.26918">
        <ele>355</ele>
        <time>2019-12-27T01:19:01Z</time>
      </trkpt>
      <trkpt lat="48.00525" lon="7.26857">
        <ele>362</ele>
        <time>2019-12-27T01:19:35Z</time>
      </trkpt>
      <trkpt lat="48.00517" lon="7.26837">
        <ele>364</ele>
        <time>2019-12-27T01:19:47Z</time>
      </trkpt>
      <trkpt lat="48.00503" lon="7.26825">
        <ele>364</ele>
        <time>2019-12-27T01:20:00Z</time>
      </trkpt>
      <trkpt lat="48.00486" lon="7.26814">
        <ele>364</ele>
        <time>2019-12-27T01:20:15Z</time>
      </trkpt>
      <trkpt lat="48.00475" lon="7.26805">
        <ele>364</ele>
        <time>2019-12-27T01:20:25Z</time>
      </trkpt>
      <trkpt lat="48.00465" lon="7.26793">
        <ele>366</ele>
        <time>2019-12-27T01:20:35Z</time>
      </trkpt>
      <trkpt lat="48.00458" lon="7.26779">
        <ele>367</ele>
        <time>2019-12-27T01:20:45Z</time>
      </trkpt>
      <trkpt lat="48.00428" lon="7.26604">
        <ele>393</ele>
        <time>2019-12-27T01:22:21Z</time>
      </trkpt>
      <trkpt lat="48.00418" lon="7.26565">
        <ele>396</ele>
        <time>2019-12-27T01:22:44Z</time>
      </trkpt>
      <trkpt lat="48.00406" lon="7.26535">
        <ele>401</ele>
        <time>2019-12-27T01:23:02Z</time>
      </trkpt>
      <trkpt lat="48.00391" lon="7.2651">
        <ele>405</ele>
        <time>2019-12-27T01:23:20Z</time>
      </trkpt>
      <trkpt lat="48.00382" lon="7.26502">
        <ele>405</ele>
        <time>2019-12-27T01:23:29Z</time>
      </trkpt>
      <trkpt lat="48.00371" lon="7.26498">
        <ele>406</ele>
        <time>2019-12-27T01:23:38Z</time>
      </trkpt>
      <trkpt lat="48.00362" lon="7.26499">
        <ele>405</ele>
        <time>2019-12-27T01:23:45Z</time>
      </trkpt>
      <trkpt lat="48.0035" lon="7.26507">
        <ele>404</ele>
        <time>2019-12-27T01:23:56Z</time>
      </trkpt>
      <trkpt lat="48.00337" lon="7.26531">
        <ele>401</ele>
        <time>2019-12-27T01:24:12Z</time>
      </trkpt>
      <trkpt lat="48.00306" lon="7.26602">
        <ele>403</ele>
        <time>2019-12-27T01:24:58Z</time>
      </trkpt>
      <trkpt lat="48.00295" lon="7.26608">
        <ele>405</ele>
        <time>2019-12-27T01:25:07Z</time>
      </trkpt>
      <trkpt lat="48.00286" lon="7.26601">
        <ele>409</ele>
        <time>2019-12-27T01:25:15Z</time>
      </trkpt>
      <trkpt lat="48.00283" lon="7.26588">
        <ele>413</ele>
        <time>2019-12-27T01:25:22Z</time>
      </trkpt>
      <trkpt lat="48.00298" lon="7.26515">
        <ele>414</ele>
        <time>2019-12-27T01:26:03Z</time>
      </trkpt>
      <trkpt lat="48.00315" lon="7.26315">
        <ele>429</ele>
        <time>2019-12-27T01:27:51Z</time>
      </trkpt>
      <trkpt lat="48.00321" lon="7.26258">
        <ele>431</ele>
        <time>2019-12-27T01:28:22Z</time>
      </trkpt>
      <trkpt lat="48.00336" lon="7.26178">
        <ele>432</ele>
        <time>2019-12-27T01:29:07Z</time>
      </trkpt>
      <trkpt lat="48.00355" lon="7.26104">
        <ele>439</ele>
        <time>2019-12-27T01:29:49Z</time>
      </trkpt>
      <trkpt lat="48.00376" lon="7.26014">
        <ele>447</ele>
        <time>2019-12-27T01:30:40Z</time>
      </trkpt>
      <trkpt lat="48.00389" lon="7.25839">
        <ele>457</ele>
        <time>2019-12-27T01:32:15Z</time>
      </trkpt>
      <trkpt lat="48.00398" lon="7.25758">
        <ele>463</ele>
        <time>2019-12-27T01:32:59Z</time>
      </trkpt>
      <trkpt lat="48.00414" lon="7.25632">
        <ele>471</ele>
        <time>2019-12-27T01:34:07Z</time>
      </trkpt>
      <trkpt lat="48.00427" lon="7.25571">
        <ele>476</ele>
        <time>2019-12-27T01:34:42Z</time>
      </trkpt>
      <trkpt lat="48.00425" lon="7.25513">
        <ele>474</ele>
        <time>2019-12-27T01:35:13Z</time>
      </trkpt>
      <trkpt lat="48.00444" lon="7.25474">
        <ele>477</ele>
        <time>2019-12-27T01:35:39Z</time>
      </trkpt>
      <trkpt lat="48.00546" lon="7.25321">
        <ele>490</ele>
        <time>2019-12-27T01:37:34Z</time>
      </trkpt>
      <trkpt lat="48.00582" lon="7.25275">
        <ele>494</ele>
        <time>2019-12-27T01:38:12Z</time>
      </trkpt>
      <trkpt lat="48.0062" lon="7.25237">
        <ele>500</ele>
        <time>2019-12-27T01:38:49Z</time>
      </trkpt>
      <trkpt lat="48.00676" lon="7.25191">
        <ele>507</ele>
        <time>2019-12-27T01:39:40Z</time>
      </trkpt>
      <trkpt lat="48.00731" lon="7.2514">
        <ele>509</ele>
        <time>2019-12-27T01:40:32Z</time>
      </trkpt>
      <trkpt lat="48.00761" lon="7.25144">
        <ele>516</ele>
        <time>2019-12-27T01:40:56Z</time>
      </trkpt>
      <trkpt lat="48.00799" lon="7.25134">
        <ele>522</ele>
        <time>2019-12-27T01:41:27Z</time>
      </trkpt>
      <trkpt lat="48.00833" lon="7.25117">
        <ele>526</ele>
        <time>2019-12-27T01:41:56Z</time>
      </trkpt>
      <trkpt lat="48.00849" lon="7.25102">
        <ele>527</ele>
        <time>2019-12-27T01:42:11Z</time>
      </trkpt>
      <trkpt lat="48.00857" lon="7.25102">
        <ele>529</ele>
        <time>2019-12-27T01:42:17Z</time>
      </trkpt>
      <trkpt lat="48.00863" lon="7.25112">
        <ele>532</ele>
        <time>2019-12-27T01:42:24Z</time>
      </trkpt>
    </trkseg>
  </trk>
</gpx>